Terminal Aerodrome Forecast
Issued by NWS

Home | Current Version | Previous Version | Text Only | Print | Product List | Glossary On
Versions: 1 2 3 4 5 6 7 8 9 10 11 12 13 14 15 16 17 18 19 20 21 22 23 24 25 26 27 28
000
FTUS45 KBOU 010521
TAFAPA
TAF
KAPA 010521Z 0106/0206 30012KT P6SM BKN090 BKN220
     FM011100 23007KT P6SM SCT100 BKN180
     FM011500 32009KT P6SM FEW090 SCT140
     FM011800 01008KT P6SM SCT060 BKN150
     FM020200 08007KT P6SM SCT150=

USA.gov is the U.S. government's official web portal to all federal, state and local government web resources and services.